sensor_id;sensor_type;location;lat;lon;timestamp;P1;durP1;ratioP1;P2;durP2;ratioP2
52434;SDS011;38354;52.892;6.148;2022-07-29T05:11:17;5.55;;;1.77;;
52434;SDS011;38354;52.892;6.148;2022-07-29T05:13:43;3.20;;;1.60;;
52434;SDS011;38354;52.892;6.148;2022-07-29T05:16:10;3.85;;;1.75;;
52434;SDS011;38354;52.892;6.148;2022-07-29T05:18:35;8.48;;;1.98;;
52434;SDS011;38354;52.892;6.148;2022-07-29T05:21:01;6.47;;;2.03;;
52434;SDS011;38354;52.892;6.148;2022-07-29T05:23:27;3.47;;;1.60;;
52434;SDS011;38354;52.892;6.148;2022-07-29T05:25:53;3.88;;;1.50;;
52434;SDS011;38354;52.892;6.148;2022-07-29T05:28:19;5.45;;;1.73;;
52434;SDS011;38354;52.892;6.148;2022-07-29T05:30:44;5.82;;;1.80;;
52434;SDS011;38354;52.892;6.148;2022-07-29T05:33:10;2.88;;;1.70;;
52434;SDS011;38354;52.892;6.148;2022-07-29T05:35:36;5.22;;;1.70;;
52434;SDS011;38354;52.892;6.148;2022-07-29T05:38:02;3.88;;;1.63;;
52434;SDS011;38354;52.892;6.148;2022-07-29T05:40:28;4.50;;;1.50;;
52434;SDS011;38354;52.892;6.148;2022-07-29T05:42:54;7.63;;;1.73;;
52434;SDS011;38354;52.892;6.148;2022-07-29T05:45:20;2.67;;;1.65;;
52434;SDS011;38354;52.892;6.148;2022-07-29T05:47:46;4.88;;;1.77;;
52434;SDS011;38354;52.892;6.148;2022-07-29T05:50:12;6.30;;;1.70;;
52434;SDS011;38354;52.892;6.148;2022-07-29T05:52:38;3.35;;;1.75;;
52434;SDS011;38354;52.892;6.148;2022-07-29T05:55:04;6.43;;;1.70;;
52434;SDS011;38354;52.892;6.148;2022-07-29T05:57:30;2.90;;;1.70;;
52434;SDS011;38354;52.892;6.148;2022-07-29T05:59:56;4.47;;;1.73;;
52434;SDS011;38354;52.892;6.148;2022-07-29T06:02:22;7.65;;;2.13;;
52434;SDS011;38354;52.892;6.148;2022-07-29T06:04:48;3.35;;;1.58;;
52434;SDS011;38354;52.892;6.148;2022-07-29T06:07:14;3.30;;;1.65;;
52434;SDS011;38354;52.892;6.148;2022-07-29T06:09:41;5.57;;;1.58;;
52434;SDS011;38354;52.892;6.148;2022-07-29T06:12:07;5.60;;;1.83;;
52434;SDS011;38354;52.892;6.148;2022-07-29T06:14:34;4.18;;;1.80;;
52434;SDS011;38354;52.892;6.148;2022-07-29T06:17:00;4.45;;;1.70;;
52434;SDS011;38354;52.892;6.148;2022-07-29T06:19:26;4.35;;;1.80;;
52434;SDS011;38354;52.892;6.148;2022-07-29T06:21:52;8.02;;;2.47;;
52434;SDS011;38354;52.892;6.148;2022-07-29T06:24:17;7.10;;;1.88;;
52434;SDS011;38354;52.892;6.148;2022-07-29T06:26:43;6.25;;;2.10;;
52434;SDS011;38354;52.892;6.148;2022-07-29T06:29:09;3.92;;;2.00;;
52434;SDS011;38354;52.892;6.148;2022-07-29T06:31:35;4.32;;;1.85;;
52434;SDS011;38354;52.892;6.148;2022-07-29T06:34:07;4.90;;;1.70;;
52434;SDS011;38354;52.892;6.148;2022-07-29T06:36:36;4.90;;;1.67;;
52434;SDS011;38354;52.892;6.148;2022-07-29T06:39:05;7.20;;;1.73;;
52434;SDS011;38354;52.892;6.148;2022-07-29T06:41:32;4.68;;;1.80;;
52434;SDS011;38354;52.892;6.148;2022-07-29T06:43:58;4.40;;;1.67;;
52434;SDS011;38354;52.892;6.148;2022-07-29T06:46:24;7.90;;;1.85;;
52434;SDS011;38354;52.892;6.148;2022-07-29T06:48:50;4.50;;;1.58;;
52434;SDS011;38354;52.892;6.148;2022-07-29T06:51:16;7.90;;;1.95;;
52434;SDS011;38354;52.892;6.148;2022-07-29T06:53:42;5.75;;;2.00;;
52434;SDS011;38354;52.892;6.148;2022-07-29T06:56:08;4.85;;;1.65;;
52434;SDS011;38354;52.892;6.148;2022-07-29T06:58:34;5.03;;;1.50;;
52434;SDS011;38354;52.892;6.148;2022-07-29T07:01:01;3.70;;;1.90;;
52434;SDS011;38354;52.892;6.148;2022-07-29T07:03:28;6.13;;;2.00;;
52434;SDS011;38354;52.892;6.148;2022-07-29T07:05:54;4.85;;;1.70;;
52434;SDS011;38354;52.892;6.148;2022-07-29T07:08:20;5.53;;;1.70;;
52434;SDS011;38354;52.892;6.148;2022-07-29T07:10:47;4.75;;;2.08;;
52434;SDS011;38354;52.892;6.148;2022-07-29T07:13:13;3.65;;;1.70;;
52434;SDS011;38354;52.892;6.148;2022-07-29T07:15:39;6.25;;;1.75;;
52434;SDS011;38354;52.892;6.148;2022-07-29T07:18:05;3.03;;;1.48;;
52434;SDS011;38354;52.892;6.148;2022-07-29T07:29:44;4.57;;;1.50;;
52434;SDS011;38354;52.892;6.148;2022-07-29T07:32:10;4.15;;;1.95;;
52434;SDS011;38354;52.892;6.148;2022-07-29T07:34:38;8.27;;;1.85;;
52434;SDS011;38354;52.892;6.148;2022-07-29T07:37:04;5.63;;;2.00;;
52434;SDS011;38354;52.892;6.148;2022-07-29T07:39:45;5.65;;;1.88;;
52434;SDS011;38354;52.892;6.148;2022-07-29T07:42:14;5.22;;;2.30;;
52434;SDS011;38354;52.892;6.148;2022-07-29T07:44:40;4.57;;;1.95;;
52434;SDS011;38354;52.892;6.148;2022-07-29T07:47:06;5.88;;;1.95;;
52434;SDS011;38354;52.892;6.148;2022-07-29T07:49:31;5.80;;;2.55;;
52434;SDS011;38354;52.892;6.148;2022-07-29T07:51:57;6.80;;;1.88;;
52434;SDS011;38354;52.892;6.148;2022-07-29T07:54:23;4.63;;;2.10;;
52434;SDS011;38354;52.892;6.148;2022-07-29T07:56:49;5.72;;;1.90;;
52434;SDS011;38354;52.892;6.148;2022-07-29T07:59:15;5.35;;;2.00;;
52434;SDS011;38354;52.892;6.148;2022-07-29T08:01:41;7.00;;;2.20;;
52434;SDS011;38354;52.892;6.148;2022-07-29T08:04:07;7.25;;;2.20;;
52434;SDS011;38354;52.892;6.148;2022-07-29T08:06:33;7.82;;;2.10;;
52434;SDS011;38354;52.892;6.148;2022-07-29T08:09:03;5.68;;;1.90;;
52434;SDS011;38354;52.892;6.148;2022-07-29T08:11:29;5.90;;;2.10;;
52434;SDS011;38354;52.892;6.148;2022-07-29T08:13:55;3.80;;;2.10;;
52434;SDS011;38354;52.892;6.148;2022-07-29T08:16:20;6.82;;;2.45;;
52434;SDS011;38354;52.892;6.148;2022-07-29T08:18:47;7.85;;;2.38;;
52434;SDS011;38354;52.892;6.148;2022-07-29T08:21:13;5.43;;;1.80;;
52434;SDS011;38354;52.892;6.148;2022-07-29T08:23:40;4.38;;;2.00;;
52434;SDS011;38354;52.892;6.148;2022-07-29T08:28:41;6.50;;;2.00;;
52434;SDS011;38354;52.892;6.148;2022-07-29T08:31:11;6.03;;;2.55;;
52434;SDS011;38354;52.892;6.148;2022-07-29T08:33:38;8.25;;;2.80;;
52434;SDS011;38354;52.892;6.148;2022-07-29T08:36:04;4.57;;;2.47;;
52434;SDS011;38354;52.892;6.148;2022-07-29T08:38:31;5.72;;;2.42;;
52434;SDS011;38354;52.892;6.148;2022-07-29T08:40:57;9.38;;;2.63;;
52434;SDS011;38354;52.892;6.148;2022-07-29T08:43:25;4.75;;;2.13;;
52434;SDS011;38354;52.892;6.148;2022-07-29T08:45:51;5.90;;;2.40;;
52434;SDS011;38354;52.892;6.148;2022-07-29T08:48:18;7.35;;;2.20;;
52434;SDS011;38354;52.892;6.148;2022-07-29T08:50:45;6.05;;;2.20;;
52434;SDS011;38354;52.892;6.148;2022-07-29T08:53:16;7.95;;;2.35;;
52434;SDS011;38354;52.892;6.148;2022-07-29T08:58:45;6.07;;;2.40;;
52434;SDS011;38354;52.892;6.148;2022-07-29T09:01:12;5.45;;;2.38;;
52434;SDS011;38354;52.892;6.148;2022-07-29T09:06:55;6.20;;;2.05;;
52434;SDS011;38354;52.892;6.148;2022-07-29T09:09:24;6.38;;;2.30;;
52434;SDS011;38354;52.892;6.148;2022-07-29T09:12:04;5.30;;;2.15;;
52434;SDS011;38354;52.892;6.148;2022-07-29T09:14:33;4.43;;;2.30;;
52434;SDS011;38354;52.892;6.148;2022-07-29T09:16:59;6.20;;;1.95;;
52434;SDS011;38354;52.892;6.148;2022-07-29T09:19:30;5.28;;;2.00;;
52434;SDS011;38354;52.892;6.148;2022-07-29T09:21:59;7.95;;;2.05;;
52434;SDS011;38354;52.892;6.148;2022-07-29T09:27:00;5.80;;;2.47;;
52434;SDS011;38354;52.892;6.148;2022-07-29T09:29:26;5.28;;;2.25;;
52434;SDS011;38354;52.892;6.148;2022-07-29T09:31:53;5.00;;;2.40;;
52434;SDS011;38354;52.892;6.148;2022-07-29T09:34:27;3.55;;;2.20;;
52434;SDS011;38354;52.892;6.148;2022-07-29T09:36:56;5.90;;;2.50;;
52434;SDS011;38354;52.892;6.148;2022-07-29T09:39:37;6.30;;;2.40;;
52434;SDS011;38354;52.892;6.148;2022-07-29T09:42:10;5.82;;;2.53;;
52434;SDS011;38354;52.892;6.148;2022-07-29T09:44:49;5.72;;;2.38;;
52434;SDS011;38354;52.892;6.148;2022-07-29T09:47:16;6.05;;;2.47;;
52434;SDS011;38354;52.892;6.148;2022-07-29T09:49:53;7.55;;;2.70;;
52434;SDS011;38354;52.892;6.148;2022-07-29T09:52:22;4.50;;;2.50;;
52434;SDS011;38354;52.892;6.148;2022-07-29T09:54:49;6.00;;;2.42;;
52434;SDS011;38354;52.892;6.148;2022-07-29T09:57:27;11.70;;;2.75;;
52434;SDS011;38354;52.892;6.148;2022-07-29T09:59:58;8.98;;;2.63;;
52434;SDS011;38354;52.892;6.148;2022-07-29T10:02:28;6.60;;;2.58;;
52434;SDS011;38354;52.892;6.148;2022-07-29T10:04:59;12.93;;;2.90;;
52434;SDS011;38354;52.892;6.148;2022-07-29T10:07:26;7.65;;;2.58;;
52434;SDS011;38354;52.892;6.148;2022-07-29T10:10:07;6.80;;;2.58;;
52434;SDS011;38354;52.892;6.148;2022-07-29T10:12:33;5.60;;;2.50;;
52434;SDS011;38354;52.892;6.148;2022-07-29T10:14:59;6.32;;;2.90;;
52434;SDS011;38354;52.892;6.148;2022-07-29T10:17:27;5.78;;;2.40;;
52434;SDS011;38354;52.892;6.148;2022-07-29T10:19:53;7.28;;;2.30;;
52434;SDS011;38354;52.892;6.148;2022-07-29T10:22:19;5.07;;;2.40;;
52434;SDS011;38354;52.892;6.148;2022-07-29T10:24:47;8.38;;;2.65;;
52434;SDS011;38354;52.892;6.148;2022-07-29T10:27:13;8.38;;;3.35;;
52434;SDS011;38354;52.892;6.148;2022-07-29T10:29:39;5.18;;;2.38;;
52434;SDS011;38354;52.892;6.148;2022-07-29T10:40:15;8.45;;;2.50;;
52434;SDS011;38354;52.892;6.148;2022-07-29T10:43:09;7.32;;;2.55;;
52434;SDS011;38354;52.892;6.148;2022-07-29T10:45:57;9.07;;;2.40;;
52434;SDS011;38354;52.892;6.148;2022-07-29T10:48:24;6.60;;;2.40;;
52434;SDS011;38354;52.892;6.148;2022-07-29T10:51:00;7.63;;;2.65;;
52434;SDS011;38354;52.892;6.148;2022-07-29T10:56:23;5.55;;;2.50;;
52434;SDS011;38354;52.892;6.148;2022-07-29T11:01:44;7.18;;;2.78;;
52434;SDS011;38354;52.892;6.148;2022-07-29T11:07:31;7.10;;;2.28;;
52434;SDS011;38354;52.892;6.148;2022-07-29T11:15:02;7.53;;;2.83;;
52434;SDS011;38354;52.892;6.148;2022-07-29T11:29:04;4.65;;;2.15;;
52434;SDS011;38354;52.892;6.148;2022-07-29T11:31:43;6.05;;;2.05;;
52434;SDS011;38354;52.892;6.148;2022-07-29T11:39:46;5.80;;;2.15;;
52434;SDS011;38354;52.892;6.148;2022-07-29T11:45:03;7.55;;;2.38;;
52434;SDS011;38354;52.892;6.148;2022-07-29T11:47:46;8.30;;;2.15;;
52434;SDS011;38354;52.892;6.148;2022-07-29T11:50:13;8.93;;;2.75;;
52434;SDS011;38354;52.892;6.148;2022-07-29T11:52:46;4.55;;;2.00;;
52434;SDS011;38354;52.892;6.148;2022-07-29T11:55:17;3.85;;;1.95;;
52434;SDS011;38354;52.892;6.148;2022-07-29T11:57:51;10.23;;;2.63;;
52434;SDS011;38354;52.892;6.148;2022-07-29T12:00:22;9.25;;;2.20;;
52434;SDS011;38354;52.892;6.148;2022-07-29T12:02:50;6.75;;;2.00;;
52434;SDS011;38354;52.892;6.148;2022-07-29T12:05:16;7.85;;;1.75;;
52434;SDS011;38354;52.892;6.148;2022-07-29T12:07:43;5.65;;;2.03;;
52434;SDS011;38354;52.892;6.148;2022-07-29T12:10:09;6.45;;;1.88;;
52434;SDS011;38354;52.892;6.148;2022-07-29T12:12:34;7.45;;;2.20;;
52434;SDS011;38354;52.892;6.148;2022-07-29T12:15:11;5.72;;;1.88;;
52434;SDS011;38354;52.892;6.148;2022-07-29T12:17:38;4.75;;;2.00;;
52434;SDS011;38354;52.892;6.148;2022-07-29T12:20:05;7.00;;;2.08;;
52434;SDS011;38354;52.892;6.148;2022-07-29T12:22:35;8.32;;;2.10;;
52434;SDS011;38354;52.892;6.148;2022-07-29T12:25:03;7.65;;;1.67;;
52434;SDS011;38354;52.892;6.148;2022-07-29T12:27:34;7.07;;;1.85;;
52434;SDS011;38354;52.892;6.148;2022-07-29T12:30:05;8.63;;;1.98;;
52434;SDS011;38354;52.892;6.148;2022-07-29T12:35:13;7.47;;;1.60;;
52434;SDS011;38354;52.892;6.148;2022-07-29T12:37:42;8.07;;;2.38;;
52434;SDS011;38354;52.892;6.148;2022-07-29T12:40:09;9.88;;;2.33;;
52434;SDS011;38354;52.892;6.148;2022-07-29T12:42:38;6.70;;;2.20;;
52434;SDS011;38354;52.892;6.148;2022-07-29T12:45:04;5.22;;;2.20;;
52434;SDS011;38354;52.892;6.148;2022-07-29T12:47:31;9.93;;;1.90;;
52434;SDS011;38354;52.892;6.148;2022-07-29T12:50:15;5.03;;;1.90;;
52434;SDS011;38354;52.892;6.148;2022-07-29T12:52:42;5.65;;;2.00;;
52434;SDS011;38354;52.892;6.148;2022-07-29T12:55:09;7.22;;;2.03;;
52434;SDS011;38354;52.892;6.148;2022-07-29T13:00:30;7.00;;;2.22;;
52434;SDS011;38354;52.892;6.148;2022-07-29T13:02:56;4.22;;;1.60;;
52434;SDS011;38354;52.892;6.148;2022-07-29T13:05:24;6.28;;;1.50;;
52434;SDS011;38354;52.892;6.148;2022-07-29T13:08:14;7.15;;;1.88;;
52434;SDS011;38354;52.892;6.148;2022-07-29T13:10:41;5.72;;;1.60;;
52434;SDS011;38354;52.892;6.148;2022-07-29T13:13:09;6.47;;;1.70;;
52434;SDS011;38354;52.892;6.148;2022-07-29T13:15:37;6.47;;;1.80;;
52434;SDS011;38354;52.892;6.148;2022-07-29T13:18:04;6.25;;;1.98;;
52434;SDS011;38354;52.892;6.148;2022-07-29T13:20:30;3.00;;;1.48;;
52434;SDS011;38354;52.892;6.148;2022-07-29T13:22:57;6.60;;;1.95;;
52434;SDS011;38354;52.892;6.148;2022-07-29T13:25:28;5.97;;;1.90;;
52434;SDS011;38354;52.892;6.148;2022-07-29T13:27:56;11.48;;;2.00;;
52434;SDS011;38354;52.892;6.148;2022-07-29T13:30:23;6.15;;;2.10;;
52434;SDS011;38354;52.892;6.148;2022-07-29T13:32:51;5.93;;;2.05;;
52434;SDS011;38354;52.892;6.148;2022-07-29T13:35:18;6.38;;;1.83;;
52434;SDS011;38354;52.892;6.148;2022-07-29T13:37:44;7.82;;;2.00;;
52434;SDS011;38354;52.892;6.148;2022-07-29T13:40:10;10.32;;;2.35;;
52434;SDS011;38354;52.892;6.148;2022-07-29T13:42:37;4.43;;;1.83;;
52434;SDS011;38354;52.892;6.148;2022-07-29T13:45:03;7.85;;;2.13;;
52434;SDS011;38354;52.892;6.148;2022-07-29T13:47:29;5.82;;;2.22;;
52434;SDS011;38354;52.892;6.148;2022-07-29T13:49:55;4.43;;;1.98;;
52434;SDS011;38354;52.892;6.148;2022-07-29T13:52:21;5.88;;;2.08;;
52434;SDS011;38354;52.892;6.148;2022-07-29T13:54:47;4.80;;;2.20;;
52434;SDS011;38354;52.892;6.148;2022-07-29T13:57:13;6.55;;;1.77;;
52434;SDS011;38354;52.892;6.148;2022-07-29T13:59:42;9.35;;;2.03;;
52434;SDS011;38354;52.892;6.148;2022-07-29T14:02:09;5.80;;;1.70;;
52434;SDS011;38354;52.892;6.148;2022-07-29T14:04:35;3.08;;;1.40;;
52434;SDS011;38354;52.892;6.148;2022-07-29T14:07:01;5.85;;;1.60;;
52434;SDS011;38354;52.892;6.148;2022-07-29T14:09:28;3.92;;;1.50;;
52434;SDS011;38354;52.892;6.148;2022-07-29T14:11:53;6.97;;;1.50;;
52434;SDS011;38354;52.892;6.148;2022-07-29T14:14:19;6.10;;;1.58;;
52434;SDS011;38354;52.892;6.148;2022-07-29T14:16:45;6.88;;;1.77;;
52434;SDS011;38354;52.892;6.148;2022-07-29T14:19:11;5.93;;;1.70;;
52434;SDS011;38354;52.892;6.148;2022-07-29T14:21:37;4.38;;;1.60;;
52434;SDS011;38354;52.892;6.148;2022-07-29T14:24:04;5.53;;;1.90;;
52434;SDS011;38354;52.892;6.148;2022-07-29T14:26:30;5.38;;;1.60;;
52434;SDS011;38354;52.892;6.148;2022-07-29T14:28:56;6.15;;;1.60;;
52434;SDS011;38354;52.892;6.148;2022-07-29T14:31:22;6.20;;;1.50;;
52434;SDS011;38354;52.892;6.148;2022-07-29T14:33:47;4.53;;;1.92;;
52434;SDS011;38354;52.892;6.148;2022-07-29T14:36:13;4.90;;;1.85;;
52434;SDS011;38354;52.892;6.148;2022-07-29T14:38:39;5.00;;;1.65;;
52434;SDS011;38354;52.892;6.148;2022-07-29T14:41:05;6.78;;;1.95;;
52434;SDS011;38354;52.892;6.148;2022-07-29T14:43:32;6.95;;;2.00;;
52434;SDS011;38354;52.892;6.148;2022-07-29T14:46:00;8.52;;;2.03;;
52434;SDS011;38354;52.892;6.148;2022-07-29T14:48:26;5.03;;;2.30;;
52434;SDS011;38354;52.892;6.148;2022-07-29T14:50:52;5.63;;;1.80;;
52434;SDS011;38354;52.892;6.148;2022-07-29T14:53:17;4.65;;;2.08;;
52434;SDS011;38354;52.892;6.148;2022-07-29T14:55:43;7.95;;;1.95;;
52434;SDS011;38354;52.892;6.148;2022-07-29T14:58:09;8.00;;;2.40;;
52434;SDS011;38354;52.892;6.148;2022-07-29T15:00:35;5.53;;;2.70;;
52434;SDS011;38354;52.892;6.148;2022-07-29T15:03:02;4.32;;;1.73;;
52434;SDS011;38354;52.892;6.148;2022-07-29T15:05:29;6.95;;;2.35;;
52434;SDS011;38354;52.892;6.148;2022-07-29T15:07:56;5.32;;;2.20;;
52434;SDS011;38354;52.892;6.148;2022-07-29T15:10:22;7.80;;;2.20;;
52434;SDS011;38354;52.892;6.148;2022-07-29T15:12:47;4.72;;;2.20;;
52434;SDS011;38354;52.892;6.148;2022-07-29T15:15:13;7.20;;;2.17;;
52434;SDS011;38354;52.892;6.148;2022-07-29T15:17:39;6.40;;;2.00;;
52434;SDS011;38354;52.892;6.148;2022-07-29T15:20:05;7.70;;;2.20;;
52434;SDS011;38354;52.892;6.148;2022-07-29T15:22:31;5.68;;;2.15;;
52434;SDS011;38354;52.892;6.148;2022-07-29T15:24:57;4.90;;;1.90;;
52434;SDS011;38354;52.892;6.148;2022-07-29T15:27:22;6.80;;;2.08;;
52434;SDS011;38354;52.892;6.148;2022-07-29T15:29:48;6.93;;;2.30;;
52434;SDS011;38354;52.892;6.148;2022-07-29T15:32:14;7.25;;;2.30;;
52434;SDS011;38354;52.892;6.148;2022-07-29T15:34:39;6.07;;;2.47;;
52434;SDS011;38354;52.892;6.148;2022-07-29T15:37:05;8.35;;;2.55;;
52434;SDS011;38354;52.892;6.148;2022-07-29T15:39:31;4.65;;;2.08;;
52434;SDS011;38354;52.892;6.148;2022-07-29T15:41:57;6.22;;;1.75;;
52434;SDS011;38354;52.892;6.148;2022-07-29T15:44:25;8.18;;;2.15;;
52434;SDS011;38354;52.892;6.148;2022-07-29T15:46:51;6.13;;;1.58;;
52434;SDS011;38354;52.892;6.148;2022-07-29T15:49:36;5.55;;;1.60;;
52434;SDS011;38354;52.892;6.148;2022-07-29T15:54:43;4.72;;;2.03;;
52434;SDS011;38354;52.892;6.148;2022-07-29T15:57:09;5.63;;;1.80;;
52434;SDS011;38354;52.892;6.148;2022-07-29T15:59:36;4.25;;;1.60;;
52434;SDS011;38354;52.892;6.148;2022-07-29T16:02:02;5.55;;;1.95;;
52434;SDS011;38354;52.892;6.148;2022-07-29T16:04:27;7.55;;;1.77;;
52434;SDS011;38354;52.892;6.148;2022-07-29T16:06:54;5.50;;;1.75;;
52434;SDS011;38354;52.892;6.148;2022-07-29T16:09:19;7.35;;;2.17;;
52434;SDS011;38354;52.892;6.148;2022-07-29T16:11:45;7.20;;;1.90;;
52434;SDS011;38354;52.892;6.148;2022-07-29T16:17:39;7.03;;;1.92;;
52434;SDS011;38354;52.892;6.148;2022-07-29T16:28:32;5.32;;;1.80;;
52434;SDS011;38354;52.892;6.148;2022-07-29T16:30:58;5.20;;;2.00;;
52434;SDS011;38354;52.892;6.148;2022-07-29T16:33:24;5.55;;;2.00;;
52434;SDS011;38354;52.892;6.148;2022-07-29T16:35:50;5.78;;;2.38;;
52434;SDS011;38354;52.892;6.148;2022-07-29T16:38:17;4.13;;;1.58;;
52434;SDS011;38354;52.892;6.148;2022-07-29T17:22:09;5.65;;;2.10;;
52434;SDS011;38354;52.892;6.148;2022-07-29T17:25:09;3.70;;;1.73;;
52434;SDS011;38354;52.892;6.148;2022-07-29T17:27:48;6.70;;;2.03;;
52434;SDS011;38354;52.892;6.148;2022-07-29T17:30:17;3.13;;;1.67;;
52434;SDS011;38354;52.892;6.148;2022-07-29T18:08:37;7.20;;;2.50;;
52434;SDS011;38354;52.892;6.148;2022-07-29T18:11:04;6.25;;;2.33;;
52434;SDS011;38354;52.892;6.148;2022-07-29T18:13:30;5.88;;;1.95;;
52434;SDS011;38354;52.892;6.148;2022-07-29T18:15:56;6.82;;;1.95;;
52434;SDS011;38354;52.892;6.148;2022-07-29T18:18:23;4.28;;;1.73;;
52434;SDS011;38354;52.892;6.148;2022-07-29T18:21:02;7.05;;;2.03;;
52434;SDS011;38354;52.892;6.148;2022-07-29T18:30:59;6.68;;;2.20;;
52434;SDS011;38354;52.892;6.148;2022-07-29T18:33:28;3.58;;;1.90;;
52434;SDS011;38354;52.892;6.148;2022-07-29T18:36:25;6.75;;;2.60;;
52434;SDS011;38354;52.892;6.148;2022-07-29T18:39:40;6.90;;;2.05;;
52434;SDS011;38354;52.892;6.148;2022-07-29T18:46:33;8.77;;;2.63;;
52434;SDS011;38354;52.892;6.148;2022-07-29T18:58:53;5.80;;;2.97;;
52434;SDS011;38354;52.892;6.148;2022-07-29T19:01:34;6.80;;;2.95;;
52434;SDS011;38354;52.892;6.148;2022-07-29T19:04:02;6.25;;;2.92;;
52434;SDS011;38354;52.892;6.148;2022-07-29T19:10:09;8.75;;;3.33;;
52434;SDS011;38354;52.892;6.148;2022-07-29T19:12:50;9.02;;;3.50;;
52434;SDS011;38354;52.892;6.148;2022-07-29T19:49:00;9.50;;;4.38;;
52434;SDS011;38354;52.892;6.148;2022-07-29T19:51:32;8.55;;;4.70;;
52434;SDS011;38354;52.892;6.148;2022-07-29T19:54:26;9.63;;;4.43;;
52434;SDS011;38354;52.892;6.148;2022-07-29T20:01:08;7.88;;;3.88;;
52434;SDS011;38354;52.892;6.148;2022-07-29T20:03:35;9.35;;;4.63;;
52434;SDS011;38354;52.892;6.148;2022-07-29T20:06:03;7.70;;;3.80;;
52434;SDS011;38354;52.892;6.148;2022-07-29T20:08:29;8.73;;;4.07;;
52434;SDS011;38354;52.892;6.148;2022-07-29T20:10:55;8.82;;;4.20;;
52434;SDS011;38354;52.892;6.148;2022-07-29T20:13:23;12.10;;;4.80;;
52434;SDS011;38354;52.892;6.148;2022-07-29T20:15:52;10.35;;;4.35;;
52434;SDS011;38354;52.892;6.148;2022-07-29T20:18:18;10.07;;;3.80;;
52434;SDS011;38354;52.892;6.148;2022-07-29T20:20:49;8.18;;;3.90;;
52434;SDS011;38354;52.892;6.148;2022-07-29T20:23:28;6.75;;;3.63;;
52434;SDS011;38354;52.892;6.148;2022-07-29T20:25:54;12.07;;;4.60;;
52434;SDS011;38354;52.892;6.148;2022-07-29T20:28:20;9.65;;;4.28;;
52434;SDS011;38354;52.892;6.148;2022-07-29T20:30:54;7.60;;;3.88;;
52434;SDS011;38354;52.892;6.148;2022-07-29T20:33:40;8.27;;;4.30;;
52434;SDS011;38354;52.892;6.148;2022-07-29T20:36:09;7.97;;;4.13;;
52434;SDS011;38354;52.892;6.148;2022-07-29T20:39:09;10.70;;;4.68;;
52434;SDS011;38354;52.892;6.148;2022-07-29T20:41:34;5.75;;;3.45;;
52434;SDS011;38354;52.892;6.148;2022-07-29T20:44:00;10.02;;;4.10;;
52434;SDS011;38354;52.892;6.148;2022-07-29T20:46:27;10.25;;;4.18;;
52434;SDS011;38354;52.892;6.148;2022-07-29T20:48:53;9.32;;;4.43;;
52434;SDS011;38354;52.892;6.148;2022-07-29T20:51:19;6.05;;;3.78;;
52434;SDS011;38354;52.892;6.148;2022-07-29T20:53:45;10.55;;;4.32;;
52434;SDS011;38354;52.892;6.148;2022-07-29T20:56:11;8.00;;;3.95;;
52434;SDS011;38354;52.892;6.148;2022-07-29T20:58:37;8.68;;;4.30;;
52434;SDS011;38354;52.892;6.148;2022-07-29T21:01:03;11.13;;;4.50;;
52434;SDS011;38354;52.892;6.148;2022-07-29T21:03:29;11.30;;;5.20;;
52434;SDS011;38354;52.892;6.148;2022-07-29T21:05:56;11.30;;;5.20;;
52434;SDS011;38354;52.892;6.148;2022-07-29T21:08:23;12.35;;;4.45;;
52434;SDS011;38354;52.892;6.148;2022-07-29T21:10:50;6.13;;;4.00;;
52434;SDS011;38354;52.892;6.148;2022-07-29T21:13:16;7.82;;;4.57;;
52434;SDS011;38354;52.892;6.148;2022-07-29T21:15:44;10.48;;;4.40;;
52434;SDS011;38354;52.892;6.148;2022-07-29T21:18:15;9.35;;;4.65;;
52434;SDS011;38354;52.892;6.148;2022-07-29T21:21:02;7.78;;;5.35;;
52434;SDS011;38354;52.892;6.148;2022-07-29T21:23:29;15.93;;;5.93;;
52434;SDS011;38354;52.892;6.148;2022-07-29T21:25:55;7.57;;;4.63;;
52434;SDS011;38354;52.892;6.148;2022-07-29T21:28:21;10.55;;;5.00;;
52434;SDS011;38354;52.892;6.148;2022-07-29T21:30:50;8.63;;;4.57;;
52434;SDS011;38354;52.892;6.148;2022-07-29T21:33:28;8.90;;;4.68;;
52434;SDS011;38354;52.892;6.148;2022-07-29T21:35:55;8.10;;;5.10;;
52434;SDS011;38354;52.892;6.148;2022-07-29T21:38:20;9.35;;;4.95;;
52434;SDS011;38354;52.892;6.148;2022-07-29T21:40:47;9.45;;;5.13;;
52434;SDS011;38354;52.892;6.148;2022-07-29T21:43:17;10.65;;;5.38;;
52434;SDS011;38354;52.892;6.148;2022-07-29T21:45:44;9.38;;;4.97;;
52434;SDS011;38354;52.892;6.148;2022-07-29T21:48:16;10.30;;;6.63;;
52434;SDS011;38354;52.892;6.148;2022-07-29T21:50:43;9.20;;;6.07;;
52434;SDS011;38354;52.892;6.148;2022-07-29T21:53:09;10.32;;;6.55;;
52434;SDS011;38354;52.892;6.148;2022-07-29T21:55:35;16.55;;;7.40;;
52434;SDS011;38354;52.892;6.148;2022-07-29T21:58:00;15.30;;;7.82;;
52434;SDS011;38354;52.892;6.148;2022-07-29T22:00:28;15.10;;;7.78;;
52434;SDS011;38354;52.892;6.148;2022-07-29T22:02:55;12.27;;;7.63;;
52434;SDS011;38354;52.892;6.148;2022-07-29T22:05:21;15.02;;;7.90;;
52434;SDS011;38354;52.892;6.148;2022-07-29T22:07:47;20.83;;;8.85;;
52434;SDS011;38354;52.892;6.148;2022-07-29T22:10:13;14.07;;;8.45;;
52434;SDS011;38354;52.892;6.148;2022-07-29T22:12:40;14.35;;;8.43;;
52434;SDS011;38354;52.892;6.148;2022-07-29T22:15:08;11.52;;;8.13;;
52434;SDS011;38354;52.892;6.148;2022-07-29T22:17:56;13.63;;;7.43;;
52434;SDS011;38354;52.892;6.148;2022-07-29T22:24:01;10.57;;;5.70;;
52434;SDS011;38354;52.892;6.148;2022-07-29T22:33:21;10.52;;;6.05;;
52434;SDS011;38354;52.892;6.148;2022-07-29T22:35:47;11.25;;;6.90;;
52434;SDS011;38354;52.892;6.148;2022-07-29T22:38:13;14.55;;;6.70;;
52434;SDS011;38354;52.892;6.148;2022-07-29T22:40:39;11.68;;;6.97;;
52434;SDS011;38354;52.892;6.148;2022-07-29T22:43:11;11.32;;;6.45;;
52434;SDS011;38354;52.892;6.148;2022-07-29T22:45:37;14.05;;;7.32;;
